Time;durP1;ratioP1;P1;durP2;ratioP2;P2;SDS_P1;SDS_P2;PMS_P1;PMS_P2;Temp;Humidity;BMP_temperature;BMP_pressure;BME280_temperature;BME280_humidity;BME280_pressure;Samples;Min_cycle;Max_cycle;Signal;HPM_P1;HPM_P2
2022/03/01 00:00:38;;;;;;;7.77;6.97;;;;;;;-5.62;100.00;98500.19;4940405;28;20471;-51
2022/03/01 00:03:08;;;;;;;7.47;6.67;;;;;;;-5.62;100.00;98500.19;4924255;28;20595;-48
2022/03/01 00:05:36;;;;;;;9.00;7.07;;;;;;;-5.66;100.00;98499.41;4951974;28;20544;-50
2022/03/01 00:08:04;;;;;;;11.37;7.73;;;;;;;-5.53;100.00;98494.69;4964208;28;20465;-54
2022/03/01 00:10:32;;;;;;;9.63;7.40;;;;;;;-5.47;100.00;98498.81;4956210;28;20465;-49
2022/03/01 00:13:00;;;;;;;9.63;7.10;;;;;;;-5.28;100.00;98499.88;4952366;28;20471;-52
2022/03/01 00:15:30;;;;;;;10.90;7.90;;;;;;;-5.20;100.00;98497.03;4964340;28;20489;-48
2022/03/01 00:17:59;;;;;;;7.60;6.80;;;;;;;-5.26;100.00;98499.84;4926651;28;20508;-52
2022/03/01 00:20:28;;;;;;;7.33;6.73;;;;;;;-5.37;100.00;98508.78;4950387;28;21745;-50
2022/03/01 00:22:56;;;;;;;11.67;8.03;;;;;;;-5.46;100.00;98500.50;4962914;28;21026;-53
2022/03/01 00:25:24;;;;;;;10.90;7.57;;;;;;;-5.47;100.00;98488.50;4945021;28;21046;-49
2022/03/01 00:27:52;;;;;;;10.37;7.33;;;;;;;-5.39;100.00;98502.00;4950320;28;20480;-52
2022/03/01 00:30:20;;;;;;;8.10;7.10;;;;;;;-5.38;100.00;98501.94;4966369;28;20453;-48
2022/03/01 00:32:48;;;;;;;10.70;7.83;;;;;;;-5.46;100.00;98498.75;4926122;28;20473;-48
2022/03/01 00:35:17;;;;;;;7.70;7.03;;;;;;;-5.57;100.00;98503.44;4946978;28;20839;-55
2022/03/01 00:37:46;;;;;;;8.87;7.03;;;;;;;-5.67;100.00;98498.59;4963953;28;21026;-51
2022/03/01 00:40:14;;;;;;;9.60;7.37;;;;;;;-5.69;100.00;98500.34;4960580;28;20478;-51
2022/03/01 00:42:42;;;;;;;8.47;6.73;;;;;;;-5.70;100.00;98505.56;4947908;28;21048;-53
2022/03/01 00:45:11;;;;;;;12.03;7.90;;;;;;;-5.65;100.00;98502.84;4949617;28;21071;-49
2022/03/01 00:47:39;;;;;;;7.80;7.03;;;;;;;-5.67;100.00;98493.44;4963109;28;20552;-54
2022/03/01 00:50:08;;;;;;;9.17;6.97;;;;;;;-5.64;100.00;98489.88;4911155;28;20464;-56
2022/03/01 00:52:36;;;;;;;8.00;7.03;;;;;;;-5.42;100.00;98479.69;4964823;28;20460;-49
2022/03/01 00:55:08;;;;;;;9.10;6.80;;;;;;;-5.36;100.00;98483.81;4959764;28;20472;-53
2022/03/01 00:57:36;;;;;;;8.00;7.03;;;;;;;-5.26;100.00;98481.75;4947801;28;20469;-51
2022/03/01 01:00:12;;;;;;;8.60;6.40;;;;;;;-5.27;100.00;98477.50;4949188;28;20543;-55
2022/03/01 01:02:40;;;;;;;8.03;6.07;;;;;;;-5.31;100.00;98481.03;4970786;28;21416;-54
2022/03/01 01:05:09;;;;;;;9.37;8.37;;;;;;;-5.24;100.00;98464.47;4925311;28;20666;-49
2022/03/01 01:07:37;;;;;;;7.43;6.27;;;;;;;-5.24;100.00;98467.88;4954007;28;20462;-49
2022/03/01 01:10:34;;;;;;;9.53;7.07;;;;;;;-5.36;100.00;98468.31;4952418;28;20488;-50
2022/03/01 01:13:02;;;;;;;7.33;6.63;;;;;;;-5.32;100.00;98462.13;4931886;28;20464;-51
2022/03/01 01:15:30;;;;;;;7.97;6.50;;;;;;;-5.32;100.00;98458.69;4965640;28;20903;-49
2022/03/01 01:17:58;;;;;;;9.07;6.93;;;;;;;-5.47;100.00;98447.16;4966324;28;20245;-49
2022/03/01 01:20:26;;;;;;;7.77;6.87;;;;;;;-5.61;100.00;98445.88;4921863;28;21581;-51
2022/03/01 01:22:54;;;;;;;6.50;5.87;;;;;;;-5.70;100.00;98451.34;4950467;28;20704;-49
2022/03/01 01:25:23;;;;;;;7.67;6.97;;;;;;;-5.77;100.00;98442.13;4964501;28;20507;-54
2022/03/01 01:27:54;;;;;;;10.90;6.33;;;;;;;-5.76;100.00;98444.63;4947359;28;20460;-48
2022/03/01 01:30:24;;;;;;;7.00;6.40;;;;;;;-5.66;100.00;98432.28;4947951;28;20716;-51
2022/03/01 01:32:52;;;;;;;8.03;6.60;;;;;;;-5.44;100.00;98434.97;4965547;28;21029;-52
2022/03/01 01:35:22;;;;;;;8.97;7.00;;;;;;;-5.27;100.00;98433.56;4920604;28;20678;-49
2022/03/01 01:37:51;;;;;;;7.73;6.73;;;;;;;-5.27;100.00;98433.56;4969331;28;20546;-48
2022/03/01 01:40:21;;;;;;;7.23;6.57;;;;;;;-5.61;100.00;98432.13;4946700;28;20745;-53
2022/03/01 01:42:49;;;;;;;7.47;6.67;;;;;;;-5.65;100.00;98435.72;4946518;28;20472;-55
2022/03/01 01:45:21;;;;;;;9.90;7.30;;;;;;;-5.89;100.00;98433.03;4946051;28;21256;-53
2022/03/01 01:47:50;;;;;;;7.50;6.50;;;;;;;-6.06;100.00;98437.06;4969301;28;20469;-51
2022/03/01 01:50:21;;;;;;;7.83;7.13;;;;;;;-6.13;100.00;98431.22;4963532;28;20468;-57
2022/03/01 01:52:50;;;;;;;7.37;6.73;;;;;;;-6.03;100.00;98428.34;4922022;28;20993;-53
2022/03/01 01:55:19;;;;;;;7.57;6.60;;;;;;;-6.03;100.00;98425.78;4944814;28;20480;-50
2022/03/01 01:57:48;;;;;;;10.43;6.13;;;;;;;-5.98;100.00;98414.38;4965774;28;20897;-57
2022/03/01 02:00:18;;;;;;;8.77;7.03;;;;;;;-6.04;100.00;98411.19;4939991;28;20487;-52
2022/03/01 02:02:47;;;;;;;7.23;6.43;;;;;;;-5.99;100.00;98425.59;4949480;28;20770;-55
2022/03/01 02:05:15;;;;;;;8.23;7.00;;;;;;;-6.14;100.00;98423.53;4962546;28;20496;-56
2022/03/01 02:07:48;;;;;;;7.37;6.67;;;;;;;-6.28;100.00;98423.97;4923891;28;20849;-52
2022/03/01 02:10:16;;;;;;;8.07;7.27;;;;;;;-6.34;100.00;98416.41;4947982;28;21469;-55
2022/03/01 02:12:45;;;;;;;8.47;7.00;;;;;;;-6.41;100.00;98410.63;4968020;28;20760;-52
2022/03/01 02:15:14;;;;;;;8.03;6.80;;;;;;;-6.48;100.00;98409.97;4940883;28;20229;-50
2022/03/01 02:17:43;;;;;;;9.83;6.20;;;;;;;-6.49;100.00;98408.28;4948338;28;20489;-54
2022/03/01 02:20:16;;;;;;;7.80;6.20;;;;;;;-6.64;100.00;98406.16;4967444;28;20402;-54
2022/03/01 02:22:45;;;;;;;7.13;6.53;;;;;;;-6.63;100.00;98406.09;4922346;28;21017;-50
2022/03/01 02:25:14;;;;;;;6.17;5.53;;;;;;;-6.65;100.00;98405.31;4945509;28;20489;-51
2022/03/01 02:27:42;;;;;;;6.57;5.90;;;;;;;-6.49;100.00;98404.84;4965282;28;20462;-51
2022/03/01 02:30:10;;;;;;;7.53;5.87;;;;;;;-6.44;100.00;98411.56;4931027;28;20461;-53
2022/03/01 02:32:39;;;;;;;9.53;6.13;;;;;;;-6.54;100.00;98389.53;4946751;28;20545;-50
2022/03/01 02:35:09;;;;;;;7.73;5.57;;;;;;;-6.36;100.00;98405.31;4964894;28;20773;-54
2022/03/01 02:37:39;;;;;;;9.70;7.00;;;;;;;-6.20;100.00;98410.81;4936299;28;20464;-54
2022/03/01 02:40:08;;;;;;;6.63;5.97;;;;;;;-6.18;100.00;98412.47;4959058;28;20527;-53
2022/03/01 02:42:37;;;;;;;7.57;6.87;;;;;;;-6.31;100.00;98386.22;4944143;28;20462;-53
2022/03/01 02:45:07;;;;;;;6.83;6.17;;;;;;;-6.38;100.00;98401.94;4941091;28;24009;-54
2022/03/01 02:47:36;;;;;;;7.90;6.50;;;;;;;-6.44;100.00;98397.78;4944952;28;20468;-48
2022/03/01 02:50:05;;;;;;;9.83;7.20;;;;;;;-6.30;100.00;98408.53;4967406;28;20223;-53
2022/03/01 02:52:37;;;;;;;8.80;6.57;;;;;;;-6.06;100.00;98407.81;4922686;28;20473;-52
2022/03/01 02:55:08;;;;;;;6.23;5.67;;;;;;;-6.34;100.00;98385.47;4952073;28;20580;-52
2022/03/01 02:57:40;;;;;;;8.77;6.00;;;;;;;-6.34;100.00;98398.38;4943458;28;20491;-54
2022/03/01 03:00:12;;;;;;;6.93;6.03;;;;;;;-6.25;100.00;98404.09;4945623;28;20899;-51
2022/03/01 03:02:42;;;;;;;7.23;6.03;;;;;;;-6.50;100.00;98396.28;4945873;28;20558;-51
2022/03/01 03:05:10;;;;;;;6.53;5.93;;;;;;;-6.47;100.00;98403.91;4963169;28;20622;-50
2022/03/01 03:07:38;;;;;;;6.90;6.20;;;;;;;-6.44;100.00;98397.78;4969579;28;20460;-52
2022/03/01 03:10:08;;;;;;;7.87;6.50;;;;;;;-6.41;100.00;98398.56;4921089;28;20479;-51
2022/03/01 03:12:36;;;;;;;6.80;6.07;;;;;;;-6.44;100.00;98397.78;4946809;28;20381;-52
2022/03/01 03:15:05;;;;;;;7.33;6.23;;;;;;;-6.47;100.00;98393.59;4966788;28;20507;-50
2022/03/01 03:17:33;;;;;;;7.40;6.23;;;;;;;-6.47;100.00;98390.16;4942649;28;20471;-52
2022/03/01 03:20:01;;;;;;;7.50;6.43;;;;;;;-6.49;100.00;98389.38;4945818;28;20468;-50
2022/03/01 03:22:29;;;;;;;7.10;6.27;;;;;;;-6.41;100.00;98388.25;4962683;28;20458;-49
2022/03/01 03:24:57;;;;;;;7.00;6.07;;;;;;;-6.58;100.00;98378.44;4920624;28;20508;-53
2022/03/01 03:27:27;;;;;;;8.10;5.77;;;;;;;-6.67;100.00;98386.47;4943655;28;21401;-54
2022/03/01 03:29:54;;;;;;;6.27;5.67;;;;;;;-6.60;100.00;98387.13;4966242;28;20460;-49
2022/03/01 03:32:23;;;;;;;7.80;6.07;;;;;;;-6.66;100.00;98383.00;4941930;28;21782;-47
2022/03/01 03:34:50;;;;;;;6.93;6.13;;;;;;;-6.45;100.00;98381.50;4944650;28;21016;-52
2022/03/01 03:37:18;;;;;;;8.47;5.47;;;;;;;-6.13;100.00;98373.63;4960518;28;20449;-52
2022/03/01 03:39:46;;;;;;;6.37;5.27;;;;;;;-6.07;100.00;98368.25;4920229;28;20475;-53
2022/03/01 03:42:14;;;;;;;5.77;5.23;;;;;;;-5.84;100.00;98379.53;4941616;28;20456;-54
2022/03/01 03:44:44;;;;;;;5.20;4.77;;;;;;;-5.94;100.00;98375.56;4965705;28;20496;-51
2022/03/01 03:47:12;;;;;;;5.63;5.23;;;;;;;-5.77;100.00;98383.56;4963053;28;20805;-48
2022/03/01 03:49:40;;;;;;;6.47;5.67;;;;;;;-5.72;100.00;98371.34;4920473;28;20469;-48
2022/03/01 03:52:09;;;;;;;6.27;5.33;;;;;;;-5.79;100.00;98382.78;4967474;28;20456;-50
2022/03/01 03:54:37;;;;;;;6.50;5.73;;;;;;;-5.90;100.00;98385.72;4966993;28;20476;-53
2022/03/01 03:57:08;;;;;;;5.87;5.30;;;;;;;-5.99;100.00;98384.31;4918518;28;20209;-50
2022/03/01 03:59:37;;;;;;;5.93;5.47;;;;;;;-6.13;100.00;98389.09;4944891;28;21026;-51
2022/03/01 04:02:07;;;;;;;8.90;5.87;;;;;;;-6.19;100.00;98395.31;4964783;28;20799;-48
2022/03/01 04:04:36;;;;;;;5.47;4.80;;;;;;;-5.89;100.00;98399.47;4922580;28;21000;-53
2022/03/01 04:07:04;;;;;;;8.93;6.33;;;;;;;-5.93;100.00;98393.56;4942306;28;20473;-51
2022/03/01 04:09:33;;;;;;;6.20;5.60;;;;;;;-6.01;100.00;98395.59;4962116;28;20469;-53
2022/03/01 04:12:02;;;;;;;6.97;5.33;;;;;;;-6.19;100.00;98391.88;4894852;28;20477;-52
2022/03/01 04:14:30;;;;;;;7.53;6.30;;;;;;;-6.36;100.00;98390.69;4942096;28;20495;-50
2022/03/01 04:17:01;;;;;;;6.60;6.03;;;;;;;-6.08;100.00;98378.63;4964339;28;20206;-52
2022/03/01 04:19:31;;;;;;;7.37;6.53;;;;;;;-6.28;100.00;98386.13;4926757;28;20484;-53
2022/03/01 04:21:59;;;;;;;9.87;6.83;;;;;;;-6.30;100.00;98392.22;4963879;28;20465;-50
2022/03/01 04:24:27;;;;;;;6.60;6.10;;;;;;;-6.37;100.00;98389.00;4965450;28;20462;-51
2022/03/01 04:26:55;;;;;;;7.57;6.23;;;;;;;-6.62;100.00;98382.03;4920654;28;20465;-54
2022/03/01 04:29:24;;;;;;;8.90;7.77;;;;;;;-6.53;100.00;98378.31;4919725;28;20468;-48
2022/03/01 04:31:52;;;;;;;7.70;6.90;;;;;;;-6.58;100.00;98372.47;4965516;28;20464;-48
2022/03/01 04:34:21;;;;;;;8.40;7.57;;;;;;;-6.50;100.00;98361.88;4934071;28;20468;-50
2022/03/01 04:36:50;;;;;;;7.27;6.57;;;;;;;-6.28;100.00;98378.38;4945648;28;20785;-52
2022/03/01 04:39:18;;;;;;;6.27;5.67;;;;;;;-6.28;100.00;98382.69;4963196;28;20531;-50
2022/03/01 04:41:46;;;;;;;7.60;6.80;;;;;;;-6.25;100.00;98380.00;4892345;28;22371;-49
2022/03/01 04:44:14;;;;;;;11.23;6.37;;;;;;;-6.25;100.00;98380.88;4947248;28;20461;-48
2022/03/01 04:46:43;;;;;;;6.60;5.07;;;;;;;-6.30;100.00;98376.72;4946071;28;20521;-50
2022/03/01 04:49:11;;;;;;;6.90;6.27;;;;;;;-6.16;100.00;98368.56;4946410;28;20552;-52
2022/03/01 04:51:39;;;;;;;8.20;6.83;;;;;;;-6.18;100.00;98372.91;4942561;28;20461;-52
2022/03/01 04:54:09;;;;;;;10.30;6.33;;;;;;;-6.10;100.00;98370.94;4933282;28;20495;-51
2022/03/01 04:56:37;;;;;;;6.53;5.93;;;;;;;-6.14;100.00;98372.78;4961297;28;20485;-53
2022/03/01 04:59:05;;;;;;;9.20;7.13;;;;;;;-6.21;100.00;98379.03;4917483;28;20473;-50
2022/03/01 05:01:33;;;;;;;7.63;5.73;;;;;;;-6.25;100.00;98374.84;4899851;28;20495;-54
2022/03/01 05:04:02;;;;;;;5.97;5.37;;;;;;;-6.40;100.00;98379.59;4963669;28;20458;-52
2022/03/01 05:06:31;;;;;;;7.43;6.23;;;;;;;-6.64;100.00;98357.16;4917796;28;21173;-52
2022/03/01 05:08:59;;;;;;;7.33;6.20;;;;;;;-6.65;100.00;98368.38;4963046;28;20496;-49
2022/03/01 05:11:28;;;;;;;10.67;6.73;;;;;;;-6.78;100.00;98361.00;4958987;28;20487;-49
2022/03/01 05:13:56;;;;;;;8.70;7.77;;;;;;;-6.83;100.00;98357.72;4920337;28;20585;-52
2022/03/01 05:16:24;;;;;;;7.90;7.17;;;;;;;-6.96;100.00;98361.56;4946431;28;20483;-51
2022/03/01 05:18:52;;;;;;;8.67;7.67;;;;;;;-6.95;100.00;98360.69;4934983;28;21475;-51
2022/03/01 05:21:21;;;;;;;8.27;6.33;;;;;;;-7.06;100.00;98353.28;4943689;28;20768;-52
2022/03/01 05:23:49;;;;;;;6.77;6.17;;;;;;;-6.90;100.00;98358.81;4955915;28;20798;-51
2022/03/01 05:26:17;;;;;;;7.30;6.60;;;;;;;-6.76;100.00;98360.97;4957389;28;21042;-50
2022/03/01 05:28:46;;;;;;;8.47;6.87;;;;;;;-6.71;100.00;98366.84;4921769;28;20642;-51
2022/03/01 05:31:14;;;;;;;7.53;6.33;;;;;;;-6.78;100.00;98363.59;4954986;28;20475;-48
2022/03/01 05:33:42;;;;;;;8.60;7.03;;;;;;;-6.79;100.00;98361.06;4945371;28;22170;-51
2022/03/01 05:36:10;;;;;;;7.70;6.87;;;;;;;-6.75;100.00;98362.66;4960928;28;20481;-50
2022/03/01 05:38:40;;;;;;;8.53;6.43;;;;;;;-6.66;100.00;98366.69;4928194;28;20464;-47
2022/03/01 05:41:09;;;;;;;9.13;6.93;;;;;;;-6.42;100.00;98373.66;4966659;28;20468;-51
2022/03/01 05:43:37;;;;;;;7.97;5.97;;;;;;;-6.27;100.00;98371.47;4918166;28;22768;-48
2022/03/01 05:46:07;;;;;;;6.40;5.33;;;;;;;-6.31;100.00;98369.88;4960215;28;20488;-47
2022/03/01 05:48:35;;;;;;;6.37;5.67;;;;;;;-6.52;100.00;98374.84;4943224;28;20488;-46
2022/03/01 05:51:04;;;;;;;8.87;6.90;;;;;;;-6.68;100.00;98377.06;4971137;28;20487;-55
2022/03/01 05:53:32;;;;;;;6.70;6.10;;;;;;;-6.80;100.00;98372.28;4936033;28;20583;-52
2022/03/01 05:56:01;;;;;;;9.73;6.63;;;;;;;-6.83;100.00;98376.59;4965089;28;20480;-53
2022/03/01 05:58:29;;;;;;;7.17;5.50;;;;;;;-6.77;100.00;98380.75;4965735;28;20880;-50
2022/03/01 06:00:57;;;;;;;5.80;5.30;;;;;;;-6.77;100.00;98375.59;4927363;28;20472;-51
2022/03/01 06:03:26;;;;;;;6.80;6.23;;;;;;;-6.68;100.00;98379.63;4949808;28;21007;-53
2022/03/01 06:05:54;;;;;;;6.53;5.90;;;;;;;-6.55;100.00;98385.25;4955869;28;20859;-54
2022/03/01 06:08:23;;;;;;;6.43;5.80;;;;;;;-6.68;100.00;98384.78;4947857;28;20213;-53
2022/03/01 06:10:51;;;;;;;7.07;6.43;;;;;;;-6.63;100.00;98374.31;4964259;28;20577;-53
2022/03/01 06:13:19;;;;;;;7.83;6.27;;;;;;;-6.44;100.00;98388.34;4966561;28;20471;-51
2022/03/01 06:15:48;;;;;;;6.47;5.93;;;;;;;-6.59;100.00;98381.09;4926210;28;20705;-51
2022/03/01 06:18:16;;;;;;;6.40;5.27;;;;;;;-6.70;100.00;98381.41;4953358;28;20487;-50
2022/03/01 06:20:46;;;;;;;6.73;6.03;;;;;;;-6.73;100.00;98379.75;4945906;28;20460;-54
2022/03/01 06:23:14;;;;;;;9.37;6.67;;;;;;;-6.45;100.00;98386.66;4951366;28;21661;-46
2022/03/01 06:25:44;;;;;;;6.53;5.93;;;;;;;-6.51;100.00;98376.53;4942302;28;20752;-53
2022/03/01 06:28:12;;;;;;;10.53;7.80;;;;;;;-6.32;100.00;98394.00;4967211;28;20461;-51
2022/03/01 06:30:40;;;;;;;6.80;6.10;;;;;;;-6.07;100.00;98390.63;4902045;28;20475;-53
2022/03/01 06:33:08;;;;;;;10.27;8.03;;;;;;;-6.01;100.00;98396.47;4957244;28;20547;-51
2022/03/01 06:35:36;;;;;;;8.07;5.87;;;;;;;-5.81;100.00;98388.00;4933009;28;21132;-50
2022/03/01 06:38:05;;;;;;;76.67;43.27;;;;;;;-5.98;100.00;98390.31;4965149;28;20691;-50
2022/03/01 06:40:34;;;;;;;42.13;23.20;;;;;;;-6.00;100.00;98387.78;4948992;28;20457;-51
2022/03/01 06:43:01;;;;;;;16.33;10.90;;;;;;;-5.89;100.00;98384.81;4952313;28;20216;-51
2022/03/01 06:45:29;;;;;;;7.83;7.07;;;;;;;-5.74;100.00;98383.47;4925690;28;20583;-52
2022/03/01 06:47:57;;;;;;;8.90;7.20;;;;;;;-5.68;100.00;98375.53;4953791;28;21038;-53
2022/03/01 06:50:26;;;;;;;7.70;6.00;;;;;;;-5.65;100.00;98387.47;4950656;28;20550;-52
2022/03/01 06:52:54;;;;;;;7.17;6.50;;;;;;;-5.50;100.00;98372.34;4953370;28;20951;-50
2022/03/01 06:55:24;;;;;;;9.47;7.13;;;;;;;-5.21;100.00;98378.22;4947462;28;20233;-52
2022/03/01 06:57:53;;;;;;;6.80;5.37;;;;;;;-4.99;100.00;98380.84;4951407;28;21038;-54
2022/03/01 07:00:24;;;;;;;6.77;6.00;;;;;;;-5.00;100.00;98372.28;4932454;28;21344;-51
2022/03/01 07:02:52;;;;;;;6.93;6.07;;;;;;;-4.80;100.00;98388.75;4951172;28;20448;-50
2022/03/01 07:05:20;;;;;;;6.77;5.30;;;;;;;-4.78;100.00;98392.13;4955297;28;20493;-53
2022/03/01 07:07:48;;;;;;;6.33;5.73;;;;;;;-4.61;100.00;98380.31;4950132;28;20484;-47
2022/03/01 07:10:16;;;;;;;6.00;5.50;;;;;;;-4.53;100.00;98386.88;4957781;28;20841;-49
2022/03/01 07:12:47;;;;;;;6.27;5.60;;;;;;;-4.38;100.00;98395.75;4961739;28;20460;-52
2022/03/01 07:15:15;;;;;;;6.63;5.97;;;;;;;-4.25;100.00;98390.13;4950106;28;20849;-52
2022/03/01 07:17:44;;;;;;;7.33;6.53;;;;;;;-4.09;100.00;98387.75;4922024;28;20522;-52
2022/03/01 07:20:13;;;;;;;6.33;5.53;;;;;;;-4.02;100.00;98391.78;4949340;28;20504;-52
2022/03/01 07:22:42;;;;;;;6.40;5.80;;;;;;;-3.89;100.00;98393.88;4955620;28;20695;-48
2022/03/01 07:25:10;;;;;;;6.90;5.30;;;;;;;-3.83;100.00;98399.63;4946554;28;20685;-47
2022/03/01 07:27:49;;;;;;;6.83;6.30;;;;;;;-3.76;100.00;98396.78;4949349;28;20585;-50
2022/03/01 07:30:18;;;;;;;5.93;5.30;;;;;;;-3.52;100.00;98402.69;4950845;28;20217;-51
2022/03/01 07:32:46;;;;;;;7.13;6.10;;;;;;;-3.57;100.00;98404.63;4927571;28;22043;-54
2022/03/01 07:35:14;;;;;;;6.80;5.90;;;;;;;-3.51;100.00;98402.63;4952443;28;20238;-50
2022/03/01 07:37:42;;;;;;;7.97;6.30;;;;;;;-3.29;100.00;98399.09;4952502;28;20903;-52
2022/03/01 07:40:17;;;;;;;5.80;5.30;;;;;;;-3.29;100.00;98408.63;4948990;28;20611;-52
2022/03/01 07:42:49;;;;;;;6.57;5.90;;;;;;;-3.17;100.00;98400.31;4949317;28;20257;-54
2022/03/01 07:45:18;;;;;;;5.57;5.10;;;;;;;-2.98;100.00;98402.94;4961374;28;20222;-53
2022/03/01 07:47:46;;;;;;;6.77;5.67;;;;;;;-2.95;100.00;98397.59;4959116;28;20535;-51
2022/03/01 07:50:15;;;;;;;7.07;5.50;;;;;;;-2.80;100.00;98397.84;4912876;28;20218;-51
2022/03/01 07:52:42;;;;;;;7.50;6.07;;;;;;;-2.79;100.00;98405.53;4947533;28;20711;-49
2022/03/01 07:55:10;;;;;;;9.53;6.97;;;;;;;-2.56;100.00;98403.66;4940971;28;20304;-52
2022/03/01 07:57:38;;;;;;;8.03;6.20;;;;;;;-2.42;100.00;98408.19;4950333;28;20212;-56
2022/03/01 08:00:10;;;;;;;7.63;6.23;;;;;;;-2.31;100.00;98407.66;4965298;28;20237;-50
2022/03/01 08:02:40;;;;;;;7.47;6.10;;;;;;;-2.24;100.00;98414.28;4954147;28;20835;-54
2022/03/01 08:05:10;;;;;;;6.30;5.70;;;;;;;-2.12;100.00;98422.38;4921042;28;20234;-50
2022/03/01 08:07:56;;;;;;;6.43;5.83;;;;;;;-2.01;100.00;98424.47;4964220;28;20229;-50
2022/03/01 08:10:25;;;;;;;6.67;6.07;;;;;;;-1.92;98.41;98424.84;4936762;28;20652;-54
2022/03/01 08:12:54;;;;;;;7.07;6.37;;;;;;;-1.64;91.47;98423.50;4946733;28;20670;-50
2022/03/01 08:15:26;;;;;;;6.67;6.17;;;;;;;-1.36;90.22;98429.06;4966187;28;20236;-49
2022/03/01 08:17:55;;;;;;;6.70;6.00;;;;;;;-1.45;99.72;98422.59;4951891;28;20291;-49
2022/03/01 08:20:24;;;;;;;6.67;5.97;;;;;;;-1.42;95.63;98424.19;4919409;28;20237;-49
2022/03/01 08:22:52;;;;;;;5.30;4.80;;;;;;;-1.28;91.35;98418.28;4949329;28;20324;-51
2022/03/01 08:25:21;;;;;;;5.43;5.00;;;;;;;-1.11;79.96;98420.00;4951035;28;20248;-48
2022/03/01 08:27:48;;;;;;;6.00;5.30;;;;;;;-1.15;82.61;98418.50;4948755;28;20333;-53
2022/03/01 08:30:17;;;;;;;9.73;6.30;;;;;;;-1.00;82.94;98424.66;4949370;28;20217;-51
2022/03/01 08:32:47;;;;;;;5.60;5.10;;;;;;;-1.08;81.87;98412.03;4954169;28;20506;-49
2022/03/01 08:35:16;;;;;;;8.93;5.93;;;;;;;-1.00;82.71;98411.66;4947284;28;20226;-52
2022/03/01 08:37:50;;;;;;;5.67;5.13;;;;;;;-1.04;81.03;98414.41;4959644;28;20447;-51
2022/03/01 08:40:21;;;;;;;5.47;4.97;;;;;;;-0.86;79.77;98410.94;4948758;28;20209;-47
2022/03/01 08:42:49;;;;;;;6.70;5.70;;;;;;;-0.74;79.88;98405.06;4952542;28;20661;-54
2022/03/01 08:45:17;;;;;;;8.17;6.07;;;;;;;-0.78;76.80;98412.16;4946216;28;20235;-49
2022/03/01 08:47:46;;;;;;;5.70;5.20;;;;;;;-0.48;78.66;98406.22;4948127;28;20952;-49
2022/03/01 08:50:14;;;;;;;7.97;5.63;;;;;;;-0.31;78.29;98405.31;4966000;28;20353;-51
2022/03/01 08:53:04;;;;;;;6.37;5.80;;;;;;;-0.20;76.62;98403.84;4919816;28;20687;-50
2022/03/01 08:55:32;;;;;;;7.00;6.23;;;;;;;-0.28;75.44;98398.25;4947815;28;20237;-50
2022/03/01 08:58:02;;;;;;;7.57;5.87;;;;;;;-0.18;73.96;98395.03;4948376;28;20320;-49
2022/03/01 09:00:30;;;;;;;6.50;6.00;;;;;;;-0.08;72.81;98387.56;4929760;28;20206;-50
2022/03/01 09:02:59;;;;;;;6.47;5.53;;;;;;;0.04;74.91;98385.16;4957296;28;20296;-54
2022/03/01 09:05:28;;;;;;;6.23;5.73;;;;;;;0.24;69.69;98387.47;4945893;28;20742;-46
2022/03/01 09:07:56;;;;;;;6.77;6.07;;;;;;;0.39;72.74;98385.75;4920465;28;20230;-50
2022/03/01 09:10:26;;;;;;;6.00;5.43;;;;;;;0.57;69.71;98380.38;4946040;28;20205;-51
2022/03/01 09:12:54;;;;;;;5.67;5.27;;;;;;;0.80;69.98;98376.38;4957191;28;20203;-53
2022/03/01 09:15:25;;;;;;;8.47;5.90;;;;;;;1.04;67.14;98367.13;4937642;28;20388;-48
2022/03/01 09:17:54;;;;;;;7.53;6.83;;;;;;;1.02;64.62;98367.25;4964625;28;20340;-52
2022/03/01 09:20:23;;;;;;;5.50;5.10;;;;;;;1.07;64.11;98362.59;4941283;28;20774;-50
2022/03/01 09:22:52;;;;;;;7.07;6.37;;;;;;;0.96;65.89;98354.59;4923906;28;20277;-49
2022/03/01 09:25:20;;;;;;;6.40;5.90;;;;;;;1.23;64.11;98357.25;4964080;28;20298;-54
2022/03/01 09:27:48;;;;;;;6.03;5.53;;;;;;;1.42;64.05;98351.69;4953250;28;20593;-50
2022/03/01 09:30:17;;;;;;;7.40;5.77;;;;;;;1.89;59.87;98353.97;4932769;28;20213;-52
2022/03/01 09:32:45;;;;;;;6.83;5.50;;;;;;;1.78;59.13;98356.44;4967164;28;20288;-51
2022/03/01 09:35:14;;;;;;;6.37;4.53;;;;;;;2.07;59.40;98351.06;4936941;28;20653;-50
2022/03/01 09:37:43;;;;;;;5.03;4.67;;;;;;;1.91;57.38;98346.84;4922580;28;20623;-51
2022/03/01 09:40:14;;;;;;;5.00;4.50;;;;;;;1.81;59.03;98351.84;4964024;28;20237;-51
2022/03/01 09:42:42;;;;;;;6.53;5.30;;;;;;;2.15;57.34;98348.81;4950540;28;20267;-50
2022/03/01 09:45:12;;;;;;;8.60;5.33;;;;;;;2.38;56.82;98346.41;4934916;28;20248;-51
2022/03/01 09:47:41;;;;;;;7.27;5.27;;;;;;;2.42;54.32;98340.88;4969792;28;20302;-47
2022/03/01 09:50:10;;;;;;;5.77;5.30;;;;;;;2.55;54.16;98340.03;4951778;28;20206;-52
2022/03/01 09:52:38;;;;;;;5.20;4.70;;;;;;;2.84;53.30;98334.59;4908369;28;20560;-48
2022/03/01 09:55:10;;;;;;;12.63;6.03;;;;;;;2.96;54.85;98333.72;4964435;28;20534;-50
2022/03/01 09:57:38;;;;;;;6.07;5.47;;;;;;;2.80;56.24;98333.94;4950968;28;21936;-51
2022/03/01 10:00:08;;;;;;;6.83;5.20;;;;;;;2.49;55.99;98327.38;4936694;28;20210;-52
2022/03/01 10:02:40;;;;;;;8.17;5.67;;;;;;;2.61;54.32;98323.91;4962715;28;20202;-52
2022/03/01 10:05:10;;;;;;;5.60;5.10;;;;;;;2.70;52.77;98332.91;4965332;28;20941;-53
2022/03/01 10:07:42;;;;;;;4.83;4.47;;;;;;;2.93;53.23;98330.50;4890127;28;20737;-54
2022/03/01 10:10:16;;;;;;;4.70;4.33;;;;;;;2.76;55.12;98319.41;4964509;28;20685;-49
2022/03/01 10:12:51;;;;;;;7.33;5.40;;;;;;;2.86;53.48;98319.59;4962209;28;21000;-48
2022/03/01 10:15:20;;;;;;;6.63;4.67;;;;;;;3.03;54.22;98307.97;4937314;28;20229;-48
2022/03/01 10:17:48;;;;;;;8.70;5.03;;;;;;;3.28;51.59;98303.59;4962456;28;20245;-47
2022/03/01 10:20:18;;;;;;;5.80;5.13;;;;;;;3.35;51.15;98304.81;4963047;28;20210;-52
2022/03/01 10:22:53;;;;;;;9.07;5.43;;;;;;;3.18;50.97;98298.19;4949324;28;20219;-54
2022/03/01 10:25:24;;;;;;;5.60;5.10;;;;;;;2.88;52.36;98300.25;4915138;28;20241;-50
2022/03/01 10:27:53;;;;;;;5.43;4.93;;;;;;;3.01;51.56;98288.91;4963570;28;20230;-53
2022/03/01 10:30:26;;;;;;;5.27;4.87;;;;;;;3.31;50.45;98292.91;4932475;28;20205;-49
2022/03/01 10:33:04;;;;;;;5.83;5.30;;;;;;;3.15;52.75;98290.53;4963973;28;20315;-56
2022/03/01 10:35:32;;;;;;;6.07;5.20;;;;;;;3.23;52.08;98285.59;4958219;28;20737;-52
2022/03/01 10:38:02;;;;;;;5.93;5.33;;;;;;;3.27;52.56;98283.59;4938875;28;20224;-48
2022/03/01 10:40:31;;;;;;;5.67;5.10;;;;;;;3.60;51.64;98277.66;4917831;28;21653;-47
2022/03/01 10:43:01;;;;;;;6.10;5.50;;;;;;;3.62;51.72;98267.09;4967224;28;20212;-51
2022/03/01 10:45:38;;;;;;;5.30;4.80;;;;;;;3.55;49.82;98276.31;4933318;28;20320;-45
2022/03/01 10:48:09;;;;;;;5.33;4.83;;;;;;;3.40;52.63;98275.66;4965242;28;20638;-51
2022/03/01 10:50:37;;;;;;;5.80;4.87;;;;;;;3.15;53.77;98259.94;4963502;28;20306;-47
2022/03/01 10:53:06;;;;;;;5.97;5.30;;;;;;;3.50;50.52;98262.72;4960801;28;20702;-53
2022/03/01 10:55:38;;;;;;;4.87;4.47;;;;;;;3.69;50.03;98257.81;4919740;28;20261;-47
2022/03/01 10:58:12;;;;;;;5.63;5.13;;;;;;;3.68;51.34;98256.16;4962724;28;20213;-52
2022/03/01 11:00:40;;;;;;;5.77;5.27;;;;;;;3.61;51.26;98249.69;4947483;28;20237;-51
2022/03/01 11:03:09;;;;;;;5.30;4.80;;;;;;;3.89;50.31;98237.97;4947247;28;20216;-51
2022/03/01 11:05:37;;;;;;;4.90;4.50;;;;;;;3.56;52.26;98228.19;4964595;28;20230;-50
2022/03/01 11:08:30;;;;;;;5.27;4.87;;;;;;;3.44;51.98;98228.16;4949995;28;20214;-53
2022/03/01 11:11:00;;;;;;;6.80;4.70;;;;;;;3.85;49.09;98228.66;4922950;28;20237;-54
2022/03/01 11:13:29;;;;;;;6.00;5.30;;;;;;;3.97;52.23;98232.13;4935012;28;20206;-55
2022/03/01 11:16:15;;;;;;;5.00;4.60;;;;;;;3.94;49.33;98231.53;4950956;28;20329;-57
2022/03/01 11:18:49;;;;;;;5.60;5.10;;;;;;;4.12;49.97;98213.56;4948291;28;20749;-49
2022/03/01 11:21:18;;;;;;;5.40;4.90;;;;;;;3.96;50.33;98213.91;4963220;28;20202;-51
2022/03/01 11:23:46;;;;;;;8.47;6.13;;;;;;;4.18;47.18;98210.47;4955327;28;20209;-50
2022/03/01 11:26:17;;;;;;;5.03;4.63;;;;;;;4.07;50.25;98202.59;4920826;28;20323;-51
2022/03/01 11:28:52;;;;;;;4.10;3.80;;;;;;;4.25;47.69;98208.22;4963818;28;20377;-50
2022/03/01 11:31:22;;;;;;;3.83;3.57;;;;;;;4.32;45.54;98194.50;4966596;28;20216;-50
2022/03/01 11:33:58;;;;;;;5.60;4.70;;;;;;;4.67;46.22;98191.84;4932886;28;20327;-51
2022/03/01 11:36:29;;;;;;;5.53;4.83;;;;;;;4.58;46.58;98186.38;4969930;28;20239;-51
2022/03/01 11:39:08;;;;;;;4.43;4.13;;;;;;;4.44;46.25;98184.00;4964288;28;20392;-48